Terminal Aerodrome Forecast
Issued by NWS Charleston, WV

Current Version | Previous Version | Graphics & Text | Print | Product List | Glossary On
Versions: 1 2 3 4 5 6 7 8 9 10 11 12 13 14 15 16 17 18 19 20 21 22 23
414
FTUS41 KRLX 192346
TAFPKB
TAF
KPKB 192346Z 2000/2024 26003KT P6SM BKN025
      TEMPO 2000/2003 SCT025
     FM200400 00000KT 4SM BR BKN015
     FM200700 00000KT 2SM BR SCT001 BKN015
     FM200900 00000KT 1/4SM FG VV001
     FM201300 00000KT 1SM BR BKN001 BKN020
     FM201500 00000KT P6SM SCT030
     FM201600 VRB03KT P6SM SCT030
     FM202000 08004KT P6SM FEW200=

USA.gov is the U.S. government's official web portal to all federal, state and local government web resources and services.